< < Back
Terminal Aerodrome Forecast


Current Version              Previous Versions:   1  2  3  4  5  6  7  8  9  

Terminal Aerodrome Forecast

897
FTUS42 KJAX 261743
TAFJAX
TAF
KJAX 261743Z 2618/2718 07014G22KT P6SM VCSH SCT035 BKN070
     FM270000 08008KT P6SM SCT030 SCT070
     FM270400 06003KT P6SM FEW020 SCT070
     FM271400 08010KT P6SM VCSH BKN035=



Latest METAR

462
SAUS80 KWBC 271600 CCA
MTRJAX
METAR KJAX 271556Z 06016G19KT 10SM FEW018 SCT031 BKN070 BKN250 32/23
A3003 RMK AO2 SLP170 T03170228 $


USA.gov is the U.S. government's official web portal to all federal, state and local government web resources and services.